sensor_id;sensor_type;location;lat;lon;timestamp;pressure;altitude;pressure_sealevel;temperature;humidity
55470;BME280;41334;47.872;16.384;2023-12-22T00:03:45;96869.94;;;4.42;66.15
55470;BME280;41334;47.872;16.384;2023-12-22T00:08:47;96904.53;;;4.75;65.45
55470;BME280;41334;47.872;16.384;2023-12-22T00:13:49;96920.19;;;4.87;64.64
55470;BME280;41334;47.872;16.384;2023-12-22T00:18:51;96976.38;;;4.24;64.65
55470;BME280;41334;47.872;16.384;2023-12-22T00:23:54;96988.56;;;3.63;62.03
55470;BME280;41334;47.872;16.384;2023-12-22T00:28:56;97001.50;;;3.75;63.41
55470;BME280;41334;47.872;16.384;2023-12-22T00:33:58;97008.88;;;3.71;64.19
55470;BME280;41334;47.872;16.384;2023-12-22T00:39:01;97022.28;;;3.29;66.39
55470;BME280;41334;47.872;16.384;2023-12-22T00:44:03;97021.25;;;3.21;67.09
55470;BME280;41334;47.872;16.384;2023-12-22T00:49:05;97030.72;;;3.08;66.30
55470;BME280;41334;47.872;16.384;2023-12-22T00:54:07;96962.94;;;3.03;65.04
55470;BME280;41334;47.872;16.384;2023-12-22T00:59:09;96933.63;;;3.39;65.37
55470;BME280;41334;47.872;16.384;2023-12-22T01:04:12;96938.22;;;2.91;65.02
55470;BME280;41334;47.872;16.384;2023-12-22T01:09:15;96925.84;;;2.85;64.80
55470;BME280;41334;47.872;16.384;2023-12-22T01:14:17;96910.91;;;3.14;65.68
55470;BME280;41334;47.872;16.384;2023-12-22T01:19:19;96945.44;;;2.83;64.67
55470;BME280;41334;47.872;16.384;2023-12-22T01:24:21;96952.03;;;3.07;63.89
55470;BME280;41334;47.872;16.384;2023-12-22T01:29:24;96961.69;;;3.29;62.31
55470;BME280;41334;47.872;16.384;2023-12-22T01:34:26;96925.16;;;3.32;58.72
55470;BME280;41334;47.872;16.384;2023-12-22T01:39:28;96924.34;;;3.31;57.21
55470;BME280;41334;47.872;16.384;2023-12-22T01:44:30;96938.63;;;3.65;57.75
55470;BME280;41334;47.872;16.384;2023-12-22T01:49:32;96901.16;;;3.95;57.67
55470;BME280;41334;47.872;16.384;2023-12-22T01:54:34;96886.84;;;3.90;55.02
55470;BME280;41334;47.872;16.384;2023-12-22T01:59:37;96919.09;;;3.86;55.82
55470;BME280;41334;47.872;16.384;2023-12-22T02:04:39;96954.28;;;3.92;54.77
55470;BME280;41334;47.872;16.384;2023-12-22T02:09:42;96961.28;;;4.21;54.31
55470;BME280;41334;47.872;16.384;2023-12-22T02:14:44;96923.22;;;4.27;54.42
55470;BME280;41334;47.872;16.384;2023-12-22T02:19:48;96965.22;;;4.20;54.71
55470;BME280;41334;47.872;16.384;2023-12-22T02:24:50;96976.66;;;4.22;55.58
55470;BME280;41334;47.872;16.384;2023-12-22T02:30:09;96965.75;;;4.10;51.80
55470;BME280;41334;47.872;16.384;2023-12-22T02:35:19;96963.72;;;4.07;51.78
55470;BME280;41334;47.872;16.384;2023-12-22T02:40:23;96966.13;;;4.25;52.97
55470;BME280;41334;47.872;16.384;2023-12-22T02:45:28;96950.81;;;4.27;52.84
55470;BME280;41334;47.872;16.384;2023-12-22T02:50:32;97021.31;;;4.25;55.97
55470;BME280;41334;47.872;16.384;2023-12-22T02:55:33;97008.91;;;3.87;56.15
55470;BME280;41334;47.872;16.384;2023-12-22T03:00:35;97041.00;;;3.51;57.80
55470;BME280;41334;47.872;16.384;2023-12-22T03:05:40;97068.63;;;3.39;58.50
55470;BME280;41334;47.872;16.384;2023-12-22T03:10:43;97002.91;;;3.25;59.17
55470;BME280;41334;47.872;16.384;2023-12-22T03:15:45;96987.03;;;2.66;60.86
55470;BME280;41334;47.872;16.384;2023-12-22T03:20:48;96988.28;;;3.09;60.33
55470;BME280;41334;47.872;16.384;2023-12-22T03:25:50;97004.47;;;2.58;59.85
55470;BME280;41334;47.872;16.384;2023-12-22T03:30:53;97001.28;;;2.96;59.25
55470;BME280;41334;47.872;16.384;2023-12-22T03:35:54;96981.00;;;2.88;59.25
55470;BME280;41334;47.872;16.384;2023-12-22T03:40:56;96972.09;;;3.35;57.95
55470;BME280;41334;47.872;16.384;2023-12-22T03:45:58;96973.66;;;2.92;58.59
55470;BME280;41334;47.872;16.384;2023-12-22T03:51:01;96975.84;;;2.87;58.87
55470;BME280;41334;47.872;16.384;2023-12-22T03:56:03;96999.19;;;2.65;59.54
55470;BME280;41334;47.872;16.384;2023-12-22T04:01:05;97014.25;;;2.83;59.24
55470;BME280;41334;47.872;16.384;2023-12-22T04:06:09;96986.28;;;2.81;59.07
55470;BME280;41334;47.872;16.384;2023-12-22T04:11:11;96979.47;;;2.51;55.16
55470;BME280;41334;47.872;16.384;2023-12-22T04:16:13;96974.03;;;2.79;53.00
55470;BME280;41334;47.872;16.384;2023-12-22T04:21:15;97009.63;;;3.00;51.76
55470;BME280;41334;47.872;16.384;2023-12-22T04:26:18;97004.47;;;2.98;51.00
55470;BME280;41334;47.872;16.384;2023-12-22T04:31:19;97015.50;;;2.98;51.38
55470;BME280;41334;47.872;16.384;2023-12-22T04:36:22;97026.88;;;2.97;50.35
55470;BME280;41334;47.872;16.384;2023-12-22T04:41:23;97032.06;;;2.86;49.95
55470;BME280;41334;47.872;16.384;2023-12-22T04:46:25;97062.06;;;3.03;50.17
55470;BME280;41334;47.872;16.384;2023-12-22T04:51:28;97067.09;;;3.13;50.22
55470;BME280;41334;47.872;16.384;2023-12-22T04:56:30;97083.38;;;3.18;49.33
55470;BME280;41334;47.872;16.384;2023-12-22T05:01:32;97101.16;;;3.09;48.61
55470;BME280;41334;47.872;16.384;2023-12-22T05:06:34;97071.50;;;3.30;47.74
55470;BME280;41334;47.872;16.384;2023-12-22T05:11:39;97046.28;;;3.28;46.69
55470;BME280;41334;47.872;16.384;2023-12-22T05:16:42;97087.69;;;3.32;45.53
55470;BME280;41334;47.872;16.384;2023-12-22T05:21:44;97096.28;;;3.30;46.50
55470;BME280;41334;47.872;16.384;2023-12-22T05:26:46;97046.22;;;3.40;45.14
55470;BME280;41334;47.872;16.384;2023-12-22T05:31:48;97063.44;;;3.37;45.80
55470;BME280;41334;47.872;16.384;2023-12-22T05:36:50;97069.53;;;3.43;45.86
55470;BME280;41334;47.872;16.384;2023-12-22T05:41:52;97081.28;;;3.56;45.42
55470;BME280;41334;47.872;16.384;2023-12-22T05:46:54;97082.69;;;3.78;45.70
55470;BME280;41334;47.872;16.384;2023-12-22T05:51:56;97057.94;;;3.65;46.42
55470;BME280;41334;47.872;16.384;2023-12-22T05:56:58;97070.56;;;3.38;46.27
55470;BME280;41334;47.872;16.384;2023-12-22T06:02:02;97072.22;;;3.55;46.00
55470;BME280;41334;47.872;16.384;2023-12-22T06:07:04;97091.00;;;3.37;46.69
55470;BME280;41334;47.872;16.384;2023-12-22T06:12:07;97090.72;;;3.14;46.66
55470;BME280;41334;47.872;16.384;2023-12-22T06:17:14;97096.78;;;3.20;47.27
55470;BME280;41334;47.872;16.384;2023-12-22T06:22:16;97100.59;;;3.56;47.35
55470;BME280;41334;47.872;16.384;2023-12-22T06:27:18;97115.09;;;3.40;47.75
55470;BME280;41334;47.872;16.384;2023-12-22T06:32:20;97103.84;;;3.45;48.49
55470;BME280;41334;47.872;16.384;2023-12-22T06:37:22;97089.00;;;3.50;50.15
55470;BME280;41334;47.872;16.384;2023-12-22T06:42:24;97101.91;;;3.34;48.72
55470;BME280;41334;47.872;16.384;2023-12-22T06:47:26;97118.16;;;3.51;49.38
55470;BME280;41334;47.872;16.384;2023-12-22T06:52:29;97127.31;;;3.15;50.35
55470;BME280;41334;47.872;16.384;2023-12-22T06:57:32;97129.44;;;3.46;50.54
55470;BME280;41334;47.872;16.384;2023-12-22T07:02:36;97120.38;;;3.45;50.99
55470;BME280;41334;47.872;16.384;2023-12-22T07:07:39;97149.38;;;3.03;51.94
55470;BME280;41334;47.872;16.384;2023-12-22T07:12:41;97165.78;;;3.11;51.96
55470;BME280;41334;47.872;16.384;2023-12-22T07:17:44;97136.94;;;3.21;51.02
55470;BME280;41334;47.872;16.384;2023-12-22T07:22:46;97141.16;;;3.43;50.17
55470;BME280;41334;47.872;16.384;2023-12-22T07:27:48;97132.59;;;3.20;48.99
55470;BME280;41334;47.872;16.384;2023-12-22T07:32:51;97127.28;;;3.39;48.30
55470;BME280;41334;47.872;16.384;2023-12-22T07:37:54;97122.13;;;3.66;47.39
55470;BME280;41334;47.872;16.384;2023-12-22T07:42:58;97161.56;;;3.54;47.68
55470;BME280;41334;47.872;16.384;2023-12-22T07:48:00;97143.03;;;3.67;47.38
55470;BME280;41334;47.872;16.384;2023-12-22T07:53:02;97155.31;;;3.97;46.94
55470;BME280;41334;47.872;16.384;2023-12-22T07:58:09;97159.31;;;4.00;46.32
55470;BME280;41334;47.872;16.384;2023-12-22T08:03:10;97179.66;;;3.95;45.46
55470;BME280;41334;47.872;16.384;2023-12-22T08:08:12;97180.63;;;4.15;45.59
55470;BME280;41334;47.872;16.384;2023-12-22T08:13:14;97168.41;;;4.29;43.86
55470;BME280;41334;47.872;16.384;2023-12-22T08:18:16;97182.78;;;4.50;43.68
55470;BME280;41334;47.872;16.384;2023-12-22T08:23:19;97197.66;;;4.61;43.61
55470;BME280;41334;47.872;16.384;2023-12-22T08:28:22;97197.16;;;4.87;43.38
55470;BME280;41334;47.872;16.384;2023-12-22T08:33:25;97200.25;;;5.01;43.26
55470;BME280;41334;47.872;16.384;2023-12-22T08:38:28;97193.78;;;5.29;42.85
55470;BME280;41334;47.872;16.384;2023-12-22T08:43:30;97202.25;;;4.41;42.76
55470;BME280;41334;47.872;16.384;2023-12-22T08:48:33;97214.31;;;4.81;42.16
55470;BME280;41334;47.872;16.384;2023-12-22T08:53:37;97236.44;;;4.37;43.08
55470;BME280;41334;47.872;16.384;2023-12-22T08:58:40;97213.69;;;4.56;43.45
55470;BME280;41334;47.872;16.384;2023-12-22T09:03:42;97205.44;;;4.43;44.82
55470;BME280;41334;47.872;16.384;2023-12-22T09:08:48;97200.84;;;4.19;43.70
55470;BME280;41334;47.872;16.384;2023-12-22T09:13:51;97209.81;;;4.29;44.31
55470;BME280;41334;47.872;16.384;2023-12-22T09:18:54;97198.94;;;4.36;43.68
55470;BME280;41334;47.872;16.384;2023-12-22T09:23:56;97193.19;;;4.41;43.90
55470;BME280;41334;47.872;16.384;2023-12-22T09:28:58;97218.22;;;4.64;43.36
55470;BME280;41334;47.872;16.384;2023-12-22T09:34:00;97204.16;;;5.16;42.19
55470;BME280;41334;47.872;16.384;2023-12-22T09:39:02;97206.72;;;5.41;42.37
55470;BME280;41334;47.872;16.384;2023-12-22T09:44:05;97224.44;;;5.40;41.37
55470;BME280;41334;47.872;16.384;2023-12-22T09:49:07;97220.19;;;5.77;42.46
55470;BME280;41334;47.872;16.384;2023-12-22T09:54:14;97202.19;;;5.01;40.82
55470;BME280;41334;47.872;16.384;2023-12-22T09:59:17;97189.16;;;5.33;40.52
55470;BME280;41334;47.872;16.384;2023-12-22T10:04:19;97197.97;;;5.39;40.04
55470;BME280;41334;47.872;16.384;2023-12-22T10:09:22;97207.41;;;5.53;41.51
55470;BME280;41334;47.872;16.384;2023-12-22T10:14:24;97207.50;;;5.41;40.80
55470;BME280;41334;47.872;16.384;2023-12-22T10:19:28;97211.66;;;5.16;39.92
55470;BME280;41334;47.872;16.384;2023-12-22T10:24:44;97211.88;;;5.77;41.08
55470;BME280;41334;47.872;16.384;2023-12-22T10:29:50;97214.78;;;5.49;40.61
55470;BME280;41334;47.872;16.384;2023-12-22T10:34:52;97219.47;;;5.45;41.03
55470;BME280;41334;47.872;16.384;2023-12-22T10:39:54;97221.34;;;5.25;42.24
55470;BME280;41334;47.872;16.384;2023-12-22T10:44:57;97233.13;;;5.07;41.96
55470;BME280;41334;47.872;16.384;2023-12-22T10:50:03;97225.03;;;5.30;42.08
55470;BME280;41334;47.872;16.384;2023-12-22T10:55:06;97213.00;;;5.06;42.62
55470;BME280;41334;47.872;16.384;2023-12-22T11:00:10;97214.41;;;5.16;42.48
55470;BME280;41334;47.872;16.384;2023-12-22T11:05:15;97220.25;;;5.46;42.50
55470;BME280;41334;47.872;16.384;2023-12-22T11:10:20;97216.38;;;4.99;42.33
55470;BME280;41334;47.872;16.384;2023-12-22T11:15:24;97241.50;;;5.42;42.32
55470;BME280;41334;47.872;16.384;2023-12-22T11:20:27;97201.56;;;4.92;42.14
55470;BME280;41334;47.872;16.384;2023-12-22T11:25:34;97201.16;;;4.90;43.24
55470;BME280;41334;47.872;16.384;2023-12-22T11:30:38;97173.84;;;5.90;41.02
55470;BME280;41334;47.872;16.384;2023-12-22T11:35:40;97190.34;;;5.67;42.20
55470;BME280;41334;47.872;16.384;2023-12-22T11:40:43;97200.22;;;5.68;42.62
55470;BME280;41334;47.872;16.384;2023-12-22T11:45:49;97174.06;;;6.01;41.27
55470;BME280;41334;47.872;16.384;2023-12-22T11:50:51;97184.47;;;6.07;40.33
55470;BME280;41334;47.872;16.384;2023-12-22T12:01:05;97169.50;;;5.54;40.18
55470;BME280;41334;47.872;16.384;2023-12-22T12:06:14;97177.59;;;5.12;41.42
55470;BME280;41334;47.872;16.384;2023-12-22T12:11:19;97139.41;;;4.98;42.23
55470;BME280;41334;47.872;16.384;2023-12-22T12:16:21;97125.66;;;5.01;42.38
55470;BME280;41334;47.872;16.384;2023-12-22T12:21:24;97111.16;;;4.89;41.02
55470;BME280;41334;47.872;16.384;2023-12-22T12:26:27;97101.44;;;4.95;41.36
55470;BME280;41334;47.872;16.384;2023-12-22T12:31:36;97116.94;;;4.99;40.52
55470;BME280;41334;47.872;16.384;2023-12-22T12:36:43;97120.94;;;5.37;40.60
55470;BME280;41334;47.872;16.384;2023-12-22T12:41:50;97118.75;;;5.27;41.86
55470;BME280;41334;47.872;16.384;2023-12-22T12:46:54;97106.69;;;5.54;42.39
55470;BME280;41334;47.872;16.384;2023-12-22T12:51:57;97124.03;;;5.16;43.02
55470;BME280;41334;47.872;16.384;2023-12-22T12:56:59;97108.34;;;5.40;43.46
55470;BME280;41334;47.872;16.384;2023-12-22T13:02:02;97115.81;;;4.85;43.96
55470;BME280;41334;47.872;16.384;2023-12-22T13:07:04;97129.81;;;4.76;44.49
55470;BME280;41334;47.872;16.384;2023-12-22T13:12:06;97114.47;;;4.94;43.61
55470;BME280;41334;47.872;16.384;2023-12-22T13:17:08;97100.50;;;4.71;43.44
55470;BME280;41334;47.872;16.384;2023-12-22T13:22:12;97105.91;;;4.84;42.97
55470;BME280;41334;47.872;16.384;2023-12-22T13:27:15;97109.66;;;5.26;42.57
55470;BME280;41334;47.872;16.384;2023-12-22T13:32:20;97102.13;;;5.08;42.67
55470;BME280;41334;47.872;16.384;2023-12-22T13:37:22;97128.44;;;4.86;43.61
55470;BME280;41334;47.872;16.384;2023-12-22T13:42:28;97121.06;;;4.74;43.34
55470;BME280;41334;47.872;16.384;2023-12-22T13:47:30;97121.56;;;4.95;41.79
55470;BME280;41334;47.872;16.384;2023-12-22T13:52:32;97133.88;;;4.35;41.26
55470;BME280;41334;47.872;16.384;2023-12-22T13:57:37;97168.28;;;4.69;40.78
55470;BME280;41334;47.872;16.384;2023-12-22T14:02:39;97160.00;;;4.69;41.06
55470;BME280;41334;47.872;16.384;2023-12-22T14:07:43;97192.31;;;4.53;41.68
55470;BME280;41334;47.872;16.384;2023-12-22T14:12:45;97197.69;;;4.33;42.82
55470;BME280;41334;47.872;16.384;2023-12-22T14:17:48;97232.69;;;4.17;44.51
55470;BME280;41334;47.872;16.384;2023-12-22T14:22:51;97284.19;;;3.11;48.09
55470;BME280;41334;47.872;16.384;2023-12-22T14:27:53;97243.06;;;2.94;50.31
55470;BME280;41334;47.872;16.384;2023-12-22T14:32:58;97265.47;;;2.47;53.06
55470;BME280;41334;47.872;16.384;2023-12-22T14:38:01;97252.13;;;2.82;53.15
55470;BME280;41334;47.872;16.384;2023-12-22T14:43:04;97282.44;;;2.49;54.38
55470;BME280;41334;47.872;16.384;2023-12-22T14:48:06;97283.84;;;3.01;55.38
55470;BME280;41334;47.872;16.384;2023-12-22T14:53:08;97316.00;;;2.22;57.87
55470;BME280;41334;47.872;16.384;2023-12-22T14:58:14;97316.38;;;2.86;55.93
55470;BME280;41334;47.872;16.384;2023-12-22T15:03:16;97309.00;;;2.78;56.87
55470;BME280;41334;47.872;16.384;2023-12-22T15:08:19;97327.53;;;2.36;57.47
55470;BME280;41334;47.872;16.384;2023-12-22T15:13:26;97332.59;;;2.67;57.32
55470;BME280;41334;47.872;16.384;2023-12-22T15:18:30;97325.78;;;2.52;58.00
55470;BME280;41334;47.872;16.384;2023-12-22T15:23:32;97305.41;;;2.65;58.72
55470;BME280;41334;47.872;16.384;2023-12-22T15:28:34;97309.53;;;2.59;59.04
55470;BME280;41334;47.872;16.384;2023-12-22T15:33:36;97299.06;;;2.32;60.20
55470;BME280;41334;47.872;16.384;2023-12-22T15:38:38;97303.59;;;2.36;60.35
55470;BME280;41334;47.872;16.384;2023-12-22T15:43:40;97272.25;;;2.29;60.87
55470;BME280;41334;47.872;16.384;2023-12-22T15:48:42;97283.84;;;2.13;61.36
55470;BME280;41334;47.872;16.384;2023-12-22T15:53:44;97283.41;;;2.11;60.57
55470;BME280;41334;47.872;16.384;2023-12-22T15:58:46;97282.25;;;2.12;60.14
55470;BME280;41334;47.872;16.384;2023-12-22T16:03:48;97297.88;;;1.79;61.10
55470;BME280;41334;47.872;16.384;2023-12-22T16:08:53;97266.69;;;1.75;61.15
55470;BME280;41334;47.872;16.384;2023-12-22T16:13:56;97264.34;;;2.06;60.27
55470;BME280;41334;47.872;16.384;2023-12-22T16:18:59;97279.88;;;1.60;61.56
55470;BME280;41334;47.872;16.384;2023-12-22T16:24:01;97273.31;;;1.53;62.15
55470;BME280;41334;47.872;16.384;2023-12-22T16:29:05;97290.88;;;1.60;61.86
55470;BME280;41334;47.872;16.384;2023-12-22T16:34:09;97307.78;;;1.71;61.17
55470;BME280;41334;47.872;16.384;2023-12-22T16:39:11;97317.41;;;1.18;63.05
55470;BME280;41334;47.872;16.384;2023-12-22T16:44:13;97295.56;;;0.92;63.38
55470;BME280;41334;47.872;16.384;2023-12-22T16:49:15;97298.41;;;0.49;64.21
55470;BME280;41334;47.872;16.384;2023-12-22T16:54:17;97293.78;;;0.23;65.87
55470;BME280;41334;47.872;16.384;2023-12-22T17:00:15;97305.03;;;-0.22;66.97
55470;BME280;41334;47.872;16.384;2023-12-22T17:05:40;97320.53;;;0.00;66.44
55470;BME280;41334;47.872;16.384;2023-12-22T17:10:45;97333.59;;;0.47;64.87
55470;BME280;41334;47.872;16.384;2023-12-22T17:15:49;97324.69;;;0.67;65.37
55470;BME280;41334;47.872;16.384;2023-12-22T17:20:51;97342.47;;;1.17;63.70
55470;BME280;41334;47.872;16.384;2023-12-22T17:26:05;97340.13;;;1.66;61.79
55470;BME280;41334;47.872;16.384;2023-12-22T17:31:12;97349.50;;;1.65;62.29
55470;BME280;41334;47.872;16.384;2023-12-22T17:36:14;97354.34;;;1.68;62.33
55470;BME280;41334;47.872;16.384;2023-12-22T17:41:16;97342.78;;;1.53;62.13
55470;BME280;41334;47.872;16.384;2023-12-22T17:46:18;97325.22;;;1.75;62.17
55470;BME280;41334;47.872;16.384;2023-12-22T17:51:20;97343.69;;;1.66;61.99
55470;BME280;41334;47.872;16.384;2023-12-22T17:56:22;97326.81;;;1.76;62.03
55470;BME280;41334;47.872;16.384;2023-12-22T18:01:24;97351.25;;;1.40;63.18
55470;BME280;41334;47.872;16.384;2023-12-22T18:06:26;97350.94;;;1.71;62.16
55470;BME280;41334;47.872;16.384;2023-12-22T18:11:29;97340.13;;;1.66;62.35
55470;BME280;41334;47.872;16.384;2023-12-22T18:16:45;97332.69;;;1.66;62.24
55470;BME280;41334;47.872;16.384;2023-12-22T18:21:48;97327.41;;;1.82;62.33
55470;BME280;41334;47.872;16.384;2023-12-22T18:26:50;97325.72;;;1.39;63.86
55470;BME280;41334;47.872;16.384;2023-12-22T18:31:52;97323.53;;;1.62;62.62
55470;BME280;41334;47.872;16.384;2023-12-22T18:36:57;97341.50;;;1.51;63.02
55470;BME280;41334;47.872;16.384;2023-12-22T18:42:02;97314.81;;;1.30;63.06
55470;BME280;41334;47.872;16.384;2023-12-22T18:47:08;97316.63;;;1.18;63.77
55470;BME280;41334;47.872;16.384;2023-12-22T18:52:10;97292.53;;;0.85;64.64
55470;BME280;41334;47.872;16.384;2023-12-22T18:57:13;97272.56;;;0.67;65.74
55470;BME280;41334;47.872;16.384;2023-12-22T19:02:15;97271.25;;;0.82;65.57
55470;BME280;41334;47.872;16.384;2023-12-22T19:07:37;97255.94;;;0.72;65.86
55470;BME280;41334;47.872;16.384;2023-12-22T19:12:40;97247.34;;;0.82;65.49
55470;BME280;41334;47.872;16.384;2023-12-22T19:17:42;97237.16;;;1.21;64.09
55470;BME280;41334;47.872;16.384;2023-12-22T19:22:44;97207.66;;;1.60;61.37
55470;BME280;41334;47.872;16.384;2023-12-22T19:27:46;97198.41;;;1.85;60.24
55470;BME280;41334;47.872;16.384;2023-12-22T19:32:49;97165.97;;;1.79;60.40
55470;BME280;41334;47.872;16.384;2023-12-22T19:37:52;97151.47;;;1.91;59.96
55470;BME280;41334;47.872;16.384;2023-12-22T19:42:55;97145.59;;;1.80;60.68
55470;BME280;41334;47.872;16.384;2023-12-22T19:47:58;97139.09;;;1.84;60.50
55470;BME280;41334;47.872;16.384;2023-12-22T19:53:00;97136.97;;;2.02;60.32
55470;BME280;41334;47.872;16.384;2023-12-22T19:58:02;97111.78;;;2.00;60.49
55470;BME280;41334;47.872;16.384;2023-12-22T20:03:04;97114.09;;;2.10;60.38
55470;BME280;41334;47.872;16.384;2023-12-22T20:08:06;97106.94;;;1.97;60.91
55470;BME280;41334;47.872;16.384;2023-12-22T20:13:09;97150.91;;;1.97;60.97
55470;BME280;41334;47.872;16.384;2023-12-22T20:18:11;97138.59;;;1.82;62.41
55470;BME280;41334;47.872;16.384;2023-12-22T20:23:14;97149.97;;;1.93;62.91
55470;BME280;41334;47.872;16.384;2023-12-22T20:28:16;97122.88;;;2.04;62.54
55470;BME280;41334;47.872;16.384;2023-12-22T20:33:18;97112.22;;;2.02;62.11
55470;BME280;41334;47.872;16.384;2023-12-22T20:38:20;97061.56;;;1.91;62.96
55470;BME280;41334;47.872;16.384;2023-12-22T20:43:22;97051.75;;;2.02;61.46
55470;BME280;41334;47.872;16.384;2023-12-22T20:48:26;97047.25;;;1.85;61.69
55470;BME280;41334;47.872;16.384;2023-12-22T20:53:30;97062.00;;;1.81;62.30
55470;BME280;41334;47.872;16.384;2023-12-22T20:58:33;97047.81;;;1.79;63.00
55470;BME280;41334;47.872;16.384;2023-12-22T21:03:35;97074.06;;;1.88;62.78
55470;BME280;41334;47.872;16.384;2023-12-22T21:08:36;97016.81;;;1.91;62.67
55470;BME280;41334;47.872;16.384;2023-12-22T21:13:39;97032.38;;;1.86;63.21
55470;BME280;41334;47.872;16.384;2023-12-22T21:18:44;97020.94;;;2.09;62.24
55470;BME280;41334;47.872;16.384;2023-12-22T21:23:48;97019.25;;;2.17;62.05
55470;BME280;41334;47.872;16.384;2023-12-22T21:28:51;96994.50;;;2.04;63.21
55470;BME280;41334;47.872;16.384;2023-12-22T21:33:58;96972.50;;;2.41;62.46
55470;BME280;41334;47.872;16.384;2023-12-22T21:39:01;96948.63;;;2.57;61.78
55470;BME280;41334;47.872;16.384;2023-12-22T21:44:10;96964.53;;;2.76;61.44
55470;BME280;41334;47.872;16.384;2023-12-22T21:49:12;96957.63;;;2.82;61.82
55470;BME280;41334;47.872;16.384;2023-12-22T21:54:14;96997.00;;;2.71;62.04
55470;BME280;41334;47.872;16.384;2023-12-22T21:59:18;96987.56;;;2.72;62.48
55470;BME280;41334;47.872;16.384;2023-12-22T22:04:23;96989.66;;;2.62;62.60
55470;BME280;41334;47.872;16.384;2023-12-22T22:09:29;97005.31;;;2.86;62.81
55470;BME280;41334;47.872;16.384;2023-12-22T22:14:32;97039.66;;;2.64;64.63
55470;BME280;41334;47.872;16.384;2023-12-22T22:19:34;97111.06;;;2.03;67.87
55470;BME280;41334;47.872;16.384;2023-12-22T22:24:36;97163.91;;;1.55;68.02
55470;BME280;41334;47.872;16.384;2023-12-22T22:29:40;97167.25;;;-0.05;72.26
55470;BME280;41334;47.872;16.384;2023-12-22T22:34:44;97122.28;;;0.14;72.67
55470;BME280;41334;47.872;16.384;2023-12-22T22:39:46;97152.09;;;0.07;71.82
55470;BME280;41334;47.872;16.384;2023-12-22T22:44:48;97163.78;;;0.33;71.75
55470;BME280;41334;47.872;16.384;2023-12-22T22:49:50;97165.38;;;0.43;72.10
55470;BME280;41334;47.872;16.384;2023-12-22T22:54:52;97158.03;;;0.64;71.51
55470;BME280;41334;47.872;16.384;2023-12-22T22:59:55;97176.44;;;0.93;70.83
55470;BME280;41334;47.872;16.384;2023-12-22T23:04:57;97165.13;;;0.95;70.71
55470;BME280;41334;47.872;16.384;2023-12-22T23:09:59;97171.19;;;1.09;70.46
55470;BME280;41334;47.872;16.384;2023-12-22T23:15:01;97159.00;;;1.19;69.77
55470;BME280;41334;47.872;16.384;2023-12-22T23:20:05;97150.97;;;1.34;69.80
55470;BME280;41334;47.872;16.384;2023-12-22T23:25:08;97135.63;;;1.75;70.41
55470;BME280;41334;47.872;16.384;2023-12-22T23:30:11;97142.72;;;1.76;69.27
55470;BME280;41334;47.872;16.384;2023-12-22T23:35:13;97168.53;;;2.29;68.70
55470;BME280;41334;47.872;16.384;2023-12-22T23:40:15;97175.50;;;1.60;70.11
55470;BME280;41334;47.872;16.384;2023-12-22T23:45:17;97170.53;;;1.75;70.02
55470;BME280;41334;47.872;16.384;2023-12-22T23:50:19;97152.75;;;1.72;70.15
55470;BME280;41334;47.872;16.384;2023-12-22T23:55:21;97153.28;;;2.20;69.03
